createdAt,value
2023-03-16T00:01:07.135Z,58.76
2023-03-16T00:03:36.823Z,58.99
2023-03-16T00:06:06.073Z,58.74
2023-03-16T00:08:36.360Z,58.92
2023-03-16T00:11:05.697Z,58.84
2023-03-16T00:13:34.630Z,59.11
2023-03-16T00:16:05.059Z,59.12
2023-03-16T00:18:39.565Z,59.39
2023-03-16T00:21:09.026Z,59.39
2023-03-16T00:23:38.325Z,59.63
2023-03-16T00:26:09.277Z,59.42
2023-03-16T00:28:38.160Z,59.51
2023-03-16T00:31:08.822Z,59.53
2023-03-16T00:33:38.267Z,59.66
2023-03-16T00:36:10.087Z,59.51
2023-03-16T00:38:45.517Z,59.60
2023-03-16T00:41:16.233Z,59.67
2023-03-16T00:43:45.766Z,59.62
2023-03-16T00:46:18.403Z,59.65
2023-03-16T00:48:50.188Z,59.70
2023-03-16T00:51:20.193Z,59.72
2023-03-16T00:53:49.791Z,59.85
2023-03-16T00:56:18.655Z,59.98
2023-03-16T00:58:47.682Z,59.75
2023-03-16T01:01:19.859Z,60.03
2023-03-16T01:03:50.172Z,59.75
2023-03-16T01:06:20.855Z,59.99
2023-03-16T01:08:50.142Z,60.16
2023-03-16T01:11:22.448Z,60.07
2023-03-16T01:13:54.604Z,60.15
2023-03-16T01:16:26.261Z,59.89
2023-03-16T01:18:57.387Z,59.96
2023-03-16T01:21:26.093Z,59.94
2023-03-16T01:23:55.617Z,60.18
2023-03-16T01:26:25.588Z,60.11
2023-03-16T01:28:55.209Z,59.97
2023-03-16T01:31:25.204Z,60.31
2023-03-16T01:33:54.039Z,60.16
2023-03-16T01:36:26.352Z,60.18
2023-03-16T01:39:00.332Z,60.25
2023-03-16T01:41:33.021Z,59.97
2023-03-16T01:44:02.059Z,60.00
2023-03-16T01:46:31.131Z,60.36
2023-03-16T01:49:20.902Z,60.52
2023-03-16T01:51:52.694Z,60.32
2023-03-16T01:54:35.417Z,60.46
2023-03-16T01:57:12.208Z,60.54
2023-03-16T02:00:10.953Z,60.25
2023-03-16T02:02:55.656Z,60.35
2023-03-16T02:05:34.013Z,60.53
2023-03-16T02:08:04.510Z,60.39
2023-03-16T02:10:33.990Z,60.53
2023-03-16T02:13:04.077Z,60.70
2023-03-16T02:15:36.291Z,60.90
2023-03-16T02:18:06.383Z,60.75
2023-03-16T02:20:39.612Z,60.77
2023-03-16T02:23:18.910Z,60.94
2023-03-16T02:26:19.354Z,60.62
2023-03-16T02:29:01.645Z,60.94
2023-03-16T02:31:31.021Z,60.78
2023-03-16T02:34:00.630Z,60.65
2023-03-16T02:36:30.780Z,60.71
2023-03-16T02:38:59.594Z,60.81
2023-03-16T02:41:29.263Z,60.81
2023-03-16T02:44:08.020Z,60.89
2023-03-16T02:46:39.497Z,61.01
2023-03-16T02:49:17.888Z,61.10
2023-03-16T02:51:48.204Z,61.22
2023-03-16T02:54:17.239Z,61.18
2023-03-16T02:56:46.372Z,61.36
2023-03-16T02:59:16.145Z,61.27
2023-03-16T03:01:44.689Z,61.43
2023-03-16T03:04:13.981Z,61.62
2023-03-16T03:06:42.651Z,61.36
2023-03-16T03:09:12.018Z,61.81
2023-03-16T03:11:42.207Z,61.30
2023-03-16T03:14:11.118Z,61.46
2023-03-16T03:16:40.676Z,61.31
2023-03-16T03:19:09.584Z,61.49
2023-03-16T03:21:38.650Z,61.28
2023-03-16T03:24:09.778Z,61.43
2023-03-16T03:26:39.354Z,61.50
2023-03-16T03:29:10.785Z,61.40
2023-03-16T03:31:40.922Z,61.85
2023-03-16T03:34:09.927Z,61.72
2023-03-16T03:36:38.815Z,61.89
2023-03-16T03:39:07.944Z,61.92
2023-03-16T03:41:37.065Z,61.79
2023-03-16T03:44:06.112Z,61.89
2023-03-16T03:46:36.369Z,62.25
2023-03-16T03:49:05.743Z,61.85
2023-03-16T03:51:36.866Z,61.87
2023-03-16T03:54:12.129Z,61.86
2023-03-16T03:56:59.918Z,61.93
2023-03-16T03:59:28.976Z,61.67
2023-03-16T04:02:11.742Z,61.80
2023-03-16T04:04:45.100Z,62.03
2023-03-16T04:07:15.255Z,62.13
2023-03-16T04:09:44.379Z,62.33
2023-03-16T04:12:21.639Z,62.15
2023-03-16T04:14:50.465Z,62.04
2023-03-16T04:17:19.422Z,61.95
2023-03-16T04:19:48.923Z,62.09
2023-03-16T04:22:18.650Z,62.00
2023-03-16T04:24:50.507Z,62.70
2023-03-16T04:27:19.454Z,62.67
2023-03-16T04:29:48.172Z,62.17
2023-03-16T04:32:17.190Z,62.43
2023-03-16T04:34:48.256Z,62.55
2023-03-16T04:37:17.059Z,62.50
2023-03-16T04:39:46.205Z,62.31
2023-03-16T04:42:15.351Z,62.69
2023-03-16T04:44:46.966Z,62.78
2023-03-16T04:47:17.768Z,62.56
2023-03-16T04:49:46.503Z,62.73
2023-03-16T04:52:16.402Z,63.06
2023-03-16T04:54:45.918Z,62.97
2023-03-16T04:57:19.740Z,63.02
2023-03-16T04:59:51.921Z,63.05
2023-03-16T05:02:27.426Z,63.08
2023-03-16T05:04:56.795Z,63.15
2023-03-16T05:07:25.418Z,62.88
2023-03-16T05:09:56.154Z,63.03
2023-03-16T05:12:34.276Z,63.21
2023-03-16T05:15:06.331Z,63.17
2023-03-16T05:17:43.377Z,63.11
2023-03-16T05:20:16.289Z,63.14
2023-03-16T05:22:49.476Z,63.34
2023-03-16T05:25:33.440Z,63.18
2023-03-16T05:28:05.740Z,63.08
2023-03-16T05:30:38.597Z,63.52
2023-03-16T05:33:10.311Z,63.49
2023-03-16T05:35:39.249Z,63.53
2023-03-16T05:38:11.118Z,63.59
2023-03-16T05:40:42.660Z,63.72
2023-03-16T05:43:26.456Z,63.68
2023-03-16T05:45:56.137Z,63.62
2023-03-16T05:48:26.125Z,63.78
2023-03-16T05:50:56.912Z,63.78
2023-03-16T05:53:29.582Z,63.60
2023-03-16T05:56:04.264Z,63.84
2023-03-16T05:58:34.512Z,63.90
2023-03-16T06:01:07.466Z,63.78
2023-03-16T06:03:36.931Z,63.77
2023-03-16T06:06:09.059Z,64.03
2023-03-16T06:08:45.205Z,64.04
2023-03-16T06:11:15.236Z,63.97
2023-03-16T06:13:43.983Z,63.90
2023-03-16T06:16:14.685Z,63.92
2023-03-16T06:18:44.165Z,64.04
2023-03-16T06:21:13.173Z,64.16
2023-03-16T06:23:42.522Z,64.30
2023-03-16T06:26:12.384Z,64.13
2023-03-16T06:28:42.305Z,63.52
2023-03-16T06:31:11.394Z,63.21
2023-03-16T06:33:42.220Z,62.51
2023-03-16T06:36:12.166Z,62.35
2023-03-16T06:38:45.943Z,62.16
2023-03-16T06:41:36.246Z,61.27
2023-03-16T06:44:06.862Z,61.66
2023-03-16T06:46:38.551Z,61.23
2023-03-16T06:49:09.396Z,62.16
2023-03-16T06:51:38.086Z,62.06
2023-03-16T06:54:06.653Z,61.00
2023-03-16T06:56:38.192Z,61.53
2023-03-16T06:59:08.546Z,60.99
2023-03-16T07:01:38.783Z,61.50
2023-03-16T07:04:08.585Z,61.71
2023-03-16T07:06:38.753Z,61.77
2023-03-16T07:09:08.125Z,61.28
2023-03-16T07:11:37.269Z,60.73
2023-03-16T07:14:05.916Z,60.84
2023-03-16T07:16:34.797Z,60.29
2023-03-16T07:19:05.757Z,60.22
2023-03-16T07:21:40.346Z,60.17
2023-03-16T07:24:13.183Z,59.80
2023-03-16T07:26:43.945Z,60.93
2023-03-16T07:29:14.649Z,60.39
2023-03-16T07:31:43.415Z,59.59
2023-03-16T07:34:17.791Z,58.97
2023-03-16T07:36:49.894Z,59.21
2023-03-16T07:39:19.130Z,59.20
2023-03-16T07:41:48.013Z,59.29
2023-03-16T07:44:18.625Z,58.68
2023-03-16T07:46:54.523Z,57.50
2023-03-16T07:49:28.049Z,57.56
2023-03-16T07:51:57.785Z,57.60
2023-03-16T07:54:31.715Z,57.32
2023-03-16T07:57:00.733Z,57.55
2023-03-16T07:59:34.185Z,56.94
2023-03-16T08:02:04.494Z,56.31
2023-03-16T08:04:33.471Z,57.03
2023-03-16T08:07:02.866Z,55.60
2023-03-16T08:09:44.676Z,56.80
2023-03-16T08:12:14.403Z,57.01
2023-03-16T08:14:45.993Z,57.32
2023-03-16T08:17:19.661Z,55.68
2023-03-16T08:19:48.792Z,55.62
2023-03-16T08:22:19.663Z,55.67
2023-03-16T08:24:49.785Z,55.20
2023-03-16T08:27:20.803Z,54.54
2023-03-16T08:29:54.037Z,54.26
2023-03-16T08:32:27.378Z,54.70
2023-03-16T08:35:01.014Z,54.62
2023-03-16T08:37:29.719Z,54.64
2023-03-16T08:40:00.666Z,54.02
2023-03-16T08:42:30.563Z,54.19
2023-03-16T08:45:12.269Z,53.45
2023-03-16T08:47:43.839Z,53.75
2023-03-16T08:50:13.550Z,52.84
2023-03-16T08:52:43.061Z,51.94
2023-03-16T08:55:11.921Z,52.11
2023-03-16T08:57:43.733Z,51.94
2023-03-16T09:00:15.960Z,51.00
2023-03-16T09:02:50.806Z,51.48
2023-03-16T09:05:31.555Z,51.30
2023-03-16T09:08:02.389Z,51.50
2023-03-16T09:10:32.910Z,50.82
2023-03-16T09:13:03.015Z,48.87
2023-03-16T09:15:32.065Z,48.42
2023-03-16T09:18:04.089Z,48.43
2023-03-16T09:20:34.661Z,48.27
2023-03-16T09:23:05.376Z,49.10
2023-03-16T09:25:35.120Z,48.85
2023-03-16T09:28:03.958Z,47.68
2023-03-16T09:30:36.778Z,46.78
2023-03-16T09:33:06.494Z,46.14
2023-03-16T09:35:36.407Z,47.42
2023-03-16T09:38:07.611Z,47.50
2023-03-16T09:40:38.530Z,47.46
2023-03-16T09:43:26.297Z,47.73
2023-03-16T09:46:14.761Z,47.25
2023-03-16T09:48:44.163Z,47.17
2023-03-16T09:51:23.821Z,47.78
2023-03-16T09:53:59.656Z,46.75
2023-03-16T09:56:36.894Z,45.63
2023-03-16T09:59:14.851Z,45.19
2023-03-16T10:02:07.239Z,45.28
2023-03-16T10:05:01.325Z,45.12
2023-03-16T10:07:39.690Z,45.92
2023-03-16T10:10:11.665Z,45.65
2023-03-16T10:12:47.570Z,45.05
2023-03-16T10:15:38.192Z,43.86
2023-03-16T10:18:20.762Z,43.52
2023-03-16T10:20:51.537Z,43.96
2023-03-16T10:23:24.387Z,43.98
2023-03-16T10:25:56.238Z,44.15
2023-03-16T10:28:28.040Z,44.40
2023-03-16T10:31:00.041Z,43.80
2023-03-16T10:33:30.271Z,43.59
2023-03-16T10:35:58.835Z,44.52
2023-03-16T10:38:43.532Z,44.31
2023-03-16T10:41:18.813Z,44.13
2023-03-16T10:43:57.745Z,44.20
2023-03-16T10:46:29.145Z,43.87
2023-03-16T10:49:27.582Z,43.69
2023-03-16T10:52:00.082Z,43.74
2023-03-16T10:54:33.063Z,43.13
2023-03-16T10:57:23.848Z,43.30
2023-03-16T10:59:58.518Z,43.11
2023-03-16T11:02:34.898Z,42.47
2023-03-16T11:05:26.349Z,43.28
2023-03-16T11:08:19.962Z,42.91
2023-03-16T11:10:58.250Z,42.42
2023-03-16T11:13:38.856Z,42.48
2023-03-16T11:16:10.411Z,42.95
2023-03-16T11:18:48.757Z,42.34
2023-03-16T11:21:39.237Z,42.44
2023-03-16T11:24:24.242Z,41.97
2023-03-16T11:27:00.311Z,41.87
2023-03-16T11:29:59.844Z,42.19
2023-03-16T11:32:48.219Z,41.87
2023-03-16T11:35:19.734Z,42.22
2023-03-16T11:38:07.493Z,42.34
2023-03-16T11:40:50.140Z,42.57
2023-03-16T11:43:33.284Z,42.51
2023-03-16T11:46:16.034Z,42.57
2023-03-16T11:49:05.978Z,42.55
2023-03-16T11:51:55.471Z,42.60
2023-03-16T11:54:38.044Z,42.61
2023-03-16T11:57:17.698Z,42.47
2023-03-16T12:00:08.066Z,42.21
2023-03-16T12:02:45.939Z,41.89
2023-03-16T12:05:44.350Z,42.23
2023-03-16T12:08:57.824Z,42.19
2023-03-16T12:11:35.849Z,42.02
2023-03-16T12:14:17.312Z,41.94
2023-03-16T12:16:50.195Z,42.06
2023-03-16T12:19:52.920Z,42.00
2023-03-16T12:22:33.789Z,42.15
2023-03-16T12:25:05.600Z,41.80
2023-03-16T12:27:39.606Z,41.89
2023-03-16T12:30:37.315Z,41.80
2023-03-16T12:33:19.057Z,41.86
2023-03-16T12:36:07.111Z,41.86
2023-03-16T12:38:47.553Z,42.00
2023-03-16T12:41:51.726Z,42.00
2023-03-16T12:44:31.951Z,41.89
2023-03-16T12:47:10.483Z,41.65
2023-03-16T12:49:40.624Z,41.73
2023-03-16T12:52:12.869Z,41.70
2023-03-16T12:55:14.238Z,41.68
2023-03-16T12:57:46.592Z,41.99
2023-03-16T13:00:17.984Z,41.81
2023-03-16T13:02:56.111Z,41.54
2023-03-16T13:05:35.165Z,41.74
2023-03-16T13:08:16.520Z,41.65
2023-03-16T13:11:10.853Z,41.75
2023-03-16T13:14:15.010Z,41.86
2023-03-16T13:17:09.211Z,41.59
2023-03-16T13:19:38.873Z,41.56
2023-03-16T13:22:20.431Z,41.37
2023-03-16T13:24:55.794Z,41.31
2023-03-16T13:27:34.994Z,41.62
2023-03-16T13:30:21.696Z,41.41
2023-03-16T13:32:55.676Z,41.42
2023-03-16T13:35:29.595Z,41.29
2023-03-16T13:38:08.426Z,41.11
2023-03-16T13:40:46.557Z,40.80
2023-03-16T13:43:17.705Z,40.44
2023-03-16T13:45:50.614Z,40.45
2023-03-16T13:48:22.976Z,40.56
2023-03-16T13:50:58.124Z,40.19
2023-03-16T13:53:33.246Z,40.26
2023-03-16T13:56:02.915Z,40.27
2023-03-16T13:58:36.563Z,40.15
2023-03-16T14:01:18.271Z,40.21
2023-03-16T14:03:48.269Z,40.09
2023-03-16T14:06:27.069Z,39.98
2023-03-16T14:09:03.418Z,39.95
2023-03-16T14:11:32.715Z,39.58
2023-03-16T14:14:13.954Z,39.79
2023-03-16T14:16:43.348Z,39.71
2023-03-16T14:19:25.034Z,39.47
2023-03-16T14:21:54.889Z,39.80
2023-03-16T14:24:35.581Z,39.80
2023-03-16T14:27:19.356Z,39.21
2023-03-16T14:29:54.825Z,39.23
2023-03-16T14:32:34.489Z,39.86
2023-03-16T14:35:20.969Z,39.80
2023-03-16T14:37:51.878Z,39.65
2023-03-16T14:40:32.734Z,39.60
2023-03-16T14:43:06.475Z,39.81
2023-03-16T14:45:37.781Z,40.17
2023-03-16T14:48:17.181Z,40.00
2023-03-16T14:50:46.347Z,40.08
2023-03-16T14:53:15.237Z,40.02
2023-03-16T14:55:43.767Z,39.57
2023-03-16T14:58:12.934Z,39.72
2023-03-16T15:00:52.613Z,39.39
2023-03-16T15:03:30.816Z,39.49
2023-03-16T15:06:00.608Z,39.36
2023-03-16T15:08:32.537Z,39.49
2023-03-16T15:11:06.109Z,39.39
2023-03-16T15:13:35.522Z,39.55
2023-03-16T15:16:05.975Z,39.62
2023-03-16T15:18:35.088Z,39.70
2023-03-16T15:21:07.040Z,39.23
2023-03-16T15:23:36.977Z,39.16
2023-03-16T15:26:07.911Z,39.44
2023-03-16T15:28:36.786Z,39.11
2023-03-16T15:31:05.607Z,39.09
2023-03-16T15:33:34.498Z,38.91
2023-03-16T15:36:13.841Z,38.58
2023-03-16T15:38:49.301Z,39.08
2023-03-16T15:41:18.276Z,39.17
2023-03-16T15:43:47.740Z,38.92
2023-03-16T15:46:17.209Z,39.06
2023-03-16T15:48:46.054Z,38.94
2023-03-16T15:51:28.257Z,39.35
2023-03-16T15:54:07.171Z,39.28
2023-03-16T15:56:53.219Z,38.95
2023-03-16T15:59:25.010Z,38.75
2023-03-16T16:01:54.071Z,39.01
2023-03-16T16:04:25.443Z,38.99
2023-03-16T16:07:09.561Z,38.66
2023-03-16T16:09:50.204Z,38.52
2023-03-16T16:12:28.162Z,39.02
2023-03-16T16:15:00.967Z,38.89
2023-03-16T16:17:47.933Z,39.07
2023-03-16T16:20:25.337Z,39.14
2023-03-16T16:22:55.825Z,38.95
2023-03-16T16:25:27.887Z,38.71
2023-03-16T16:27:57.385Z,38.89
2023-03-16T16:30:31.653Z,38.94
2023-03-16T16:33:01.290Z,39.11
2023-03-16T16:35:30.475Z,39.01
2023-03-16T16:37:59.223Z,39.01
2023-03-16T16:40:37.733Z,38.99
2023-03-16T16:43:07.431Z,38.75
2023-03-16T16:45:37.355Z,38.94
2023-03-16T16:48:25.938Z,38.75
2023-03-16T16:50:54.843Z,38.94
2023-03-16T16:53:23.826Z,39.12
2023-03-16T16:55:53.593Z,39.08
2023-03-16T16:58:24.841Z,38.80
2023-03-16T17:00:58.305Z,38.90
2023-03-16T17:03:30.002Z,38.94
2023-03-16T17:05:59.744Z,39.06
2023-03-16T17:08:28.881Z,39.16
2023-03-16T17:10:57.791Z,39.17
2023-03-16T17:13:41.360Z,39.20
2023-03-16T17:16:16.720Z,39.38
2023-03-16T17:18:46.357Z,39.31
2023-03-16T17:21:20.002Z,39.26
2023-03-16T17:23:49.355Z,39.26
2023-03-16T17:26:22.123Z,39.21
2023-03-16T17:29:23.369Z,39.16
2023-03-16T17:31:52.327Z,39.25
2023-03-16T17:34:24.337Z,39.38
2023-03-16T17:36:54.513Z,39.43
2023-03-16T17:39:26.512Z,39.43
2023-03-16T17:42:00.313Z,39.39
2023-03-16T17:44:39.402Z,39.48
2023-03-16T17:47:22.988Z,39.47
2023-03-16T17:49:52.522Z,39.31
2023-03-16T17:52:24.643Z,39.46
2023-03-16T17:54:54.594Z,39.34
2023-03-16T17:57:31.484Z,39.65
2023-03-16T18:00:01.969Z,39.44
2023-03-16T18:03:07.917Z,39.29
2023-03-16T18:05:52.855Z,39.73
2023-03-16T18:08:48.001Z,39.55
2023-03-16T18:11:47.646Z,39.59
2023-03-16T18:14:47.736Z,39.69
2023-03-16T18:17:39.173Z,39.53
2023-03-16T18:20:43.817Z,39.77
2023-03-16T18:23:35.521Z,39.85
2023-03-16T18:26:26.099Z,39.85
2023-03-16T18:29:11.673Z,39.86
2023-03-16T18:32:08.383Z,39.77
2023-03-16T18:34:54.429Z,39.91
2023-03-16T18:37:47.990Z,39.96
2023-03-16T18:40:33.728Z,40.05
2023-03-16T18:43:21.307Z,40.18
2023-03-16T18:45:52.649Z,40.18
2023-03-16T18:48:35.525Z,40.30
2023-03-16T18:51:04.722Z,40.21
2023-03-16T18:53:34.233Z,40.26
2023-03-16T18:56:03.627Z,40.16
2023-03-16T18:58:32.173Z,40.10
2023-03-16T19:01:02.922Z,40.24
2023-03-16T19:03:35.396Z,40.31
2023-03-16T19:06:05.442Z,40.41
2023-03-16T19:08:34.655Z,40.36
2023-03-16T19:11:05.040Z,40.40
2023-03-16T19:13:34.604Z,40.37
2023-03-16T19:16:04.505Z,40.35
2023-03-16T19:18:42.679Z,40.43
2023-03-16T19:21:20.485Z,40.38
2023-03-16T19:23:57.755Z,40.55
2023-03-16T19:26:27.556Z,40.55
2023-03-16T19:28:57.059Z,40.64
2023-03-16T19:31:31.303Z,40.53
2023-03-16T19:34:00.250Z,40.40
2023-03-16T19:36:31.659Z,40.49
2023-03-16T19:39:00.425Z,40.42
2023-03-16T19:41:33.036Z,40.53
2023-03-16T19:44:08.633Z,40.81
2023-03-16T19:46:38.257Z,40.63
2023-03-16T19:49:15.794Z,40.58
2023-03-16T19:51:45.007Z,40.70
2023-03-16T19:54:35.431Z,40.87
2023-03-16T19:57:12.726Z,40.99
2023-03-16T19:59:42.832Z,40.87
2023-03-16T20:02:40.569Z,41.01
2023-03-16T20:05:21.446Z,40.94
2023-03-16T20:07:51.135Z,41.13
2023-03-16T20:10:23.749Z,41.22
2023-03-16T20:13:00.891Z,41.16
2023-03-16T20:15:33.469Z,41.29
2023-03-16T20:18:03.454Z,41.31
2023-03-16T20:20:37.828Z,41.53
2023-03-16T20:23:16.616Z,41.52
2023-03-16T20:25:46.470Z,41.61
2023-03-16T20:28:20.965Z,41.57
2023-03-16T20:30:50.945Z,41.59
2023-03-16T20:33:24.123Z,41.57
2023-03-16T20:35:59.649Z,41.82
2023-03-16T20:38:29.533Z,41.83
2023-03-16T20:40:58.317Z,41.85
2023-03-16T20:43:30.760Z,41.97
2023-03-16T20:46:02.781Z,41.85
2023-03-16T20:48:32.526Z,41.76
2023-03-16T20:51:01.639Z,41.98
2023-03-16T20:53:30.243Z,42.00
2023-03-16T20:55:59.508Z,42.19
2023-03-16T20:58:29.951Z,42.16
2023-03-16T21:00:58.401Z,42.25
2023-03-16T21:03:29.832Z,42.33
2023-03-16T21:05:59.958Z,42.26
2023-03-16T21:08:29.215Z,42.53
2023-03-16T21:11:00.354Z,42.64
2023-03-16T21:13:33.635Z,42.78
2023-03-16T21:16:04.203Z,42.86
2023-03-16T21:18:33.558Z,42.93
2023-03-16T21:21:03.436Z,43.00
2023-03-16T21:23:32.459Z,43.03
2023-03-16T21:26:04.027Z,43.13
2023-03-16T21:28:35.513Z,43.04
2023-03-16T21:31:05.956Z,43.13
2023-03-16T21:33:37.963Z,43.05
2023-03-16T21:36:16.248Z,42.96
2023-03-16T21:38:46.539Z,43.28
2023-03-16T21:41:16.979Z,43.39
2023-03-16T21:43:48.444Z,43.44
2023-03-16T21:46:23.180Z,43.21
2023-03-16T21:48:55.037Z,43.30
2023-03-16T21:51:29.234Z,43.42
2023-03-16T21:53:58.682Z,43.52
2023-03-16T21:56:27.712Z,43.58
2023-03-16T21:58:56.547Z,43.54
2023-03-16T22:01:33.458Z,43.70
2023-03-16T22:04:09.400Z,43.87
2023-03-16T22:06:38.341Z,43.72
2023-03-16T22:09:07.726Z,43.66
2023-03-16T22:11:36.395Z,43.65
2023-03-16T22:14:05.419Z,43.61
2023-03-16T22:16:37.341Z,43.48
2023-03-16T22:19:07.100Z,43.64
2023-03-16T22:21:39.463Z,44.01
2023-03-16T22:24:16.962Z,43.84
2023-03-16T22:26:46.841Z,43.81
2023-03-16T22:29:26.843Z,43.89
2023-03-16T22:32:04.771Z,44.04
2023-03-16T22:34:38.729Z,44.05
2023-03-16T22:37:08.985Z,43.90
2023-03-16T22:39:40.469Z,44.19
2023-03-16T22:42:33.866Z,44.17
2023-03-16T22:45:03.454Z,44.28
2023-03-16T22:47:37.234Z,44.14
2023-03-16T22:50:07.831Z,44.43
2023-03-16T22:52:38.175Z,44.50
2023-03-16T22:55:07.343Z,44.29
2023-03-16T22:57:36.052Z,44.30
2023-03-16T23:00:07.624Z,44.34
2023-03-16T23:02:37.102Z,44.54
2023-03-16T23:05:21.253Z,44.70
2023-03-16T23:07:49.913Z,44.62
2023-03-16T23:10:22.278Z,44.59
2023-03-16T23:12:52.330Z,44.78
2023-03-16T23:15:23.992Z,44.94
2023-03-16T23:17:52.958Z,44.86
2023-03-16T23:20:25.940Z,44.88
2023-03-16T23:22:55.420Z,45.17
2023-03-16T23:25:24.971Z,45.09
2023-03-16T23:27:54.085Z,45.08
2023-03-16T23:30:25.965Z,45.44
2023-03-16T23:32:56.068Z,45.21
2023-03-16T23:35:25.768Z,45.41
2023-03-16T23:37:55.189Z,45.38
2023-03-16T23:40:27.534Z,45.48
2023-03-16T23:43:02.308Z,45.31
2023-03-16T23:45:40.071Z,45.44
2023-03-16T23:48:15.661Z,45.38
2023-03-16T23:50:48.412Z,45.67
2023-03-16T23:53:18.988Z,45.46
2023-03-16T23:55:48.406Z,45.67
2023-03-16T23:58:17.155Z,45.87
